Terminal Aerodrome Forecast
Issued by NWS

Home | Current Version | Previous Version | Text Only | Print | Product List | Glossary On
Versions: 1 2 3 4 5 6 7 8 9 10 11 12 13 14 15
000
FTUS44 KSJT 241100
TAFBBD
TAF
KBBD 241120Z 2412/2512 17007KT P6SM OVC018
     FM241500 34015KT P6SM FEW250
     FM250000 01008KT P6SM SKC=

USA.gov is the U.S. government's official web portal to all federal, state and local government web resources and services.